KGLE/GLE METAR and TAF weather

Enter ICAO airport designator
Station Type Date Time Source
KGLE METAR 2021/03/05 11:55 UTC NOAA

KGLE 051155Z AUTO 15007KT 10SM CLR 10/07 A2989 RMK AO2 T00990069 10144 20099


Station Type Date Time Source
KGLE Decoded METAR 2021/03/05 11:55 UTC NOAA

Gainesville, Gainesville Municipal Airport, TX, United States (KGLE) 33-39-05N 097-11-49W
Mar 05, 2021 - 06:55 AM EST / 2021.03.05 1155 UTC
Wind: from the SSE (150 degrees) at 8 MPH (7 KT):0
Visibility: 10 mile(s):0
Sky conditions: clear
Temperature: 49.8 F (9.9 C)
Dew Point: 44.4 F (6.9 C)
Relative Humidity: 81%
Pressure (altimeter): 29.89 in. Hg (1012 hPa)
ob: KGLE 051155Z AUTO 15007KT 10SM CLR 10/07 A2989 RMK AO2 T00990069 10144 20099
cycle: 12

Station Type Date Time Source
KGLE TAF UTC NOAA

Error!

Example: see airport list